Time;durP1;ratioP1;P1;durP2;ratioP2;P2;SDS_P1;SDS_P2;PMS_P1;PMS_P2;Temp;Humidity;BMP_temperature;BMP_pressure;BME280_temperature;BME280_humidity;BME280_pressure;Samples;Min_cycle;Max_cycle;Signal;HPM_P1;HPM_P2
2021/09/24 00:01:32;;;;;;;6.77;3.97;;;;;;;;;;5018669;28;20200;-80
2021/09/24 00:03:58;;;;;;;5.33;4.07;;;;;;;;;;5005525;28;20437;-80
2021/09/24 00:06:24;;;;;;;5.37;3.97;;;;;;;;;;5005155;28;20556;-80
2021/09/24 00:08:50;;;;;;;7.13;3.70;;;;;;;;;;4997193;28;20928;-80
2021/09/24 00:11:16;;;;;;;4.60;4.20;;;;;;;;;;5003252;28;20197;-80
2021/09/24 00:13:42;;;;;;;3.85;3.53;;;;;;;;;;5017508;28;20442;-80
2021/09/24 00:16:08;;;;;;;6.72;4.10;;;;;;;;;;5013529;28;20187;-80
2021/09/24 00:18:34;;;;;;;4.18;3.75;;;;;;;;;;5006737;28;20214;-80
2021/09/24 00:21:00;;;;;;;5.18;4.68;;;;;;;;;;5000092;28;20246;-80
2021/09/24 00:23:26;;;;;;;5.00;4.50;;;;;;;;;;5004645;28;20218;-80
2021/09/24 00:25:52;;;;;;;4.55;4.00;;;;;;;;;;5004527;28;20191;-80
2021/09/24 00:28:18;;;;;;;5.70;3.93;;;;;;;;;;5017415;28;20172;-80
2021/09/24 00:30:44;;;;;;;5.00;4.30;;;;;;;;;;5020762;28;20442;-80
2021/09/24 00:33:10;;;;;;;6.23;5.03;;;;;;;;;;5003458;28;20451;-80
2021/09/24 00:35:36;;;;;;;6.67;5.00;;;;;;;;;;4995927;28;20455;-80
2021/09/24 00:38:02;;;;;;;5.67;5.17;;;;;;;;;;5001341;28;20793;-81
2021/09/24 00:40:31;;;;;;;4.85;4.35;;;;;;;;;;5017328;28;20446;-81
2021/09/24 00:42:57;;;;;;;6.40;4.97;;;;;;;;;;5017966;28;20181;-81
2021/09/24 00:45:23;;;;;;;6.10;4.25;;;;;;;;;;5004266;28;20247;-81
2021/09/24 00:47:51;;;;;;;5.90;4.60;;;;;;;;;;4995929;28;20223;-80
2021/09/24 00:50:17;;;;;;;5.15;4.65;;;;;;;;;;5002566;28;20445;-80
2021/09/24 00:52:43;;;;;;;6.55;4.95;;;;;;;;;;5015605;28;20200;-81
2021/09/24 00:55:09;;;;;;;5.47;4.78;;;;;;;;;;4999759;28;20189;-80
2021/09/24 00:57:35;;;;;;;6.50;5.80;;;;;;;;;;5005470;28;20191;-80
2021/09/24 01:00:01;;;;;;;5.68;4.85;;;;;;;;;;5001343;28;20193;-80
2021/09/24 01:02:28;;;;;;;5.60;4.78;;;;;;;;;;5002070;28;20191;-80
2021/09/24 01:04:54;;;;;;;5.90;5.30;;;;;;;;;;5002202;28;20187;-80
2021/09/24 01:07:20;;;;;;;8.20;5.65;;;;;;;;;;5017517;28;20214;-81
2021/09/24 01:09:46;;;;;;;5.70;5.20;;;;;;;;;;5019888;28;20178;-80
2021/09/24 01:12:12;;;;;;;7.77;5.33;;;;;;;;;;5001818;28;20425;-80
2021/09/24 01:14:38;;;;;;;5.28;4.70;;;;;;;;;;5001808;28;20500;-81
2021/09/24 01:17:04;;;;;;;6.35;5.60;;;;;;;;;;5001770;28;20202;-81
2021/09/24 01:19:30;;;;;;;7.25;5.53;;;;;;;;;;5002016;28;20569;-81
2021/09/24 01:21:56;;;;;;;6.80;5.32;;;;;;;;;;5003262;28;20183;-81
2021/09/24 01:24:22;;;;;;;7.22;6.15;;;;;;;;;;5002875;28;20519;-80
2021/09/24 01:26:49;;;;;;;5.90;5.10;;;;;;;;;;4995021;28;20244;-80
2021/09/24 01:29:16;;;;;;;8.80;5.55;;;;;;;;;;4999113;28;20216;-81
2021/09/24 01:31:42;;;;;;;12.73;5.65;;;;;;;;;;5018048;28;20179;-81
2021/09/24 01:34:08;;;;;;;8.45;5.80;;;;;;;;;;5002141;28;20553;-81
2021/09/24 01:36:34;;;;;;;11.27;7.72;;;;;;;;;;5005180;28;20189;-81
2021/09/24 01:39:07;;;;;;;8.48;6.72;;;;;;;;;;5001073;28;20201;-80
2021/09/24 01:41:33;;;;;;;7.15;5.88;;;;;;;;;;5000803;28;20197;-80
2021/09/24 01:43:59;;;;;;;10.63;7.07;;;;;;;;;;5000621;28;20195;-80
2021/09/24 01:46:25;;;;;;;10.20;8.07;;;;;;;;;;5000655;28;20215;-80
2021/09/24 01:48:51;;;;;;;9.17;7.13;;;;;;;;;;5004326;28;20177;-80
2021/09/24 01:51:17;;;;;;;8.53;6.87;;;;;;;;;;5002365;28;20423;-80
2021/09/24 01:53:43;;;;;;;8.60;7.47;;;;;;;;;;5000922;28;20468;-80
2021/09/24 01:56:09;;;;;;;9.43;7.80;;;;;;;;;;4996248;28;20460;-80
2021/09/24 01:58:35;;;;;;;10.43;7.10;;;;;;;;;;4999810;28;20221;-80
2021/09/24 02:01:01;;;;;;;9.43;7.33;;;;;;;;;;5001990;28;21133;-81
2021/09/24 02:03:27;;;;;;;11.67;6.97;;;;;;;;;;5003016;28;20436;-80
2021/09/24 02:05:53;;;;;;;10.35;7.95;;;;;;;;;;5000188;28;20454;-81
2021/09/24 02:08:19;;;;;;;11.67;7.80;;;;;;;;;;5000907;28;20264;-81
2021/09/24 02:10:45;;;;;;;13.13;7.10;;;;;;;;;;5001004;28;20438;-81
2021/09/24 02:13:11;;;;;;;8.80;6.90;;;;;;;;;;5000304;28;20883;-81
2021/09/24 02:15:37;;;;;;;8.50;7.20;;;;;;;;;;5004017;28;20421;-80
2021/09/24 02:18:03;;;;;;;11.47;7.97;;;;;;;;;;5000700;28;20182;-80
2021/09/24 02:20:29;;;;;;;8.03;7.20;;;;;;;;;;4993883;28;20446;-80
2021/09/24 02:22:55;;;;;;;10.73;7.53;;;;;;;;;;5000194;28;20445;-81
2021/09/24 02:25:21;;;;;;;11.20;6.80;;;;;;;;;;5000468;28;20446;-81
2021/09/24 02:27:47;;;;;;;12.45;8.38;;;;;;;;;;5018210;28;20493;-80
2021/09/24 02:30:13;;;;;;;10.37;7.57;;;;;;;;;;4998231;28;20175;-81
2021/09/24 02:32:40;;;;;;;9.80;7.80;;;;;;;;;;5000293;28;20435;-80
2021/09/24 02:35:07;;;;;;;9.38;7.55;;;;;;;;;;5002065;28;20243;-81
2021/09/24 02:37:33;;;;;;;13.25;7.78;;;;;;;;;;5000034;28;20179;-80
2021/09/24 02:39:59;;;;;;;12.85;9.15;;;;;;;;;;5000861;28;20198;-81
2021/09/24 02:42:25;;;;;;;10.07;7.68;;;;;;;;;;5000457;28;20213;-81
2021/09/24 02:44:51;;;;;;;10.68;7.32;;;;;;;;;;4995388;28;20301;-80
2021/09/24 02:47:17;;;;;;;10.02;7.60;;;;;;;;;;5000668;28;20210;-80
2021/09/24 02:49:44;;;;;;;9.23;7.50;;;;;;;;;;5000443;28;20187;-81
2021/09/24 02:52:10;;;;;;;11.82;8.55;;;;;;;;;;5001568;28;20202;-81
2021/09/24 02:54:36;;;;;;;12.50;7.97;;;;;;;;;;5002456;28;20183;-81
2021/09/24 02:57:02;;;;;;;11.30;8.07;;;;;;;;;;5000177;28;20519;-80
2021/09/24 02:59:28;;;;;;;13.88;9.30;;;;;;;;;;5000404;28;20545;-80
2021/09/24 03:01:57;;;;;;;15.90;10.40;;;;;;;;;;4997399;28;20207;-80
2021/09/24 03:04:23;;;;;;;14.93;8.90;;;;;;;;;;5011480;28;20443;-80
2021/09/24 03:06:49;;;;;;;11.17;8.17;;;;;;;;;;5002592;28;20685;-81
2021/09/24 03:09:15;;;;;;;13.07;8.20;;;;;;;;;;5000528;28;20471;-81
2021/09/24 03:11:41;;;;;;;13.68;7.97;;;;;;;;;;4999471;28;20183;-81
2021/09/24 03:14:07;;;;;;;13.32;8.82;;;;;;;;;;4999564;28;20222;-81
2021/09/24 03:16:33;;;;;;;12.13;9.00;;;;;;;;;;5018147;28;20187;-81
2021/09/24 03:18:59;;;;;;;11.30;8.85;;;;;;;;;;5021097;28;20425;-81
2021/09/24 03:21:25;;;;;;;9.27;7.47;;;;;;;;;;5006375;28;20186;-81
2021/09/24 03:23:51;;;;;;;11.60;7.95;;;;;;;;;;5003595;28;20258;-81
2021/09/24 03:26:18;;;;;;;11.07;7.70;;;;;;;;;;5003439;28;20238;-81
2021/09/24 03:28:44;;;;;;;12.00;7.88;;;;;;;;;;5018759;28;20509;-81
2021/09/24 03:31:10;;;;;;;10.18;7.78;;;;;;;;;;5017449;28;20183;-81
2021/09/24 03:33:36;;;;;;;9.18;7.53;;;;;;;;;;5007587;28;20195;-80
2021/09/24 03:36:03;;;;;;;10.23;7.80;;;;;;;;;;4996624;28;20190;-80
2021/09/24 03:38:29;;;;;;;11.00;8.50;;;;;;;;;;5007660;28;20197;-81
2021/09/24 03:40:55;;;;;;;17.58;8.20;;;;;;;;;;5003532;28;20185;-81
2021/09/24 03:43:21;;;;;;;11.45;7.85;;;;;;;;;;5002834;28;20194;-80
2021/09/24 03:45:47;;;;;;;11.57;8.03;;;;;;;;;;5005632;28;20218;-80
2021/09/24 03:48:13;;;;;;;9.80;7.75;;;;;;;;;;5005311;28;20415;-81
2021/09/24 03:50:39;;;;;;;10.27;7.40;;;;;;;;;;5002785;28;20183;-81
2021/09/24 03:53:05;;;;;;;9.57;8.50;;;;;;;;;;5003299;28;20433;-80
2021/09/24 03:55:31;;;;;;;9.93;7.55;;;;;;;;;;5003449;28;20442;-79
2021/09/24 03:57:57;;;;;;;11.00;7.10;;;;;;;;;;5005275;28;20184;-80
2021/09/24 04:00:23;;;;;;;12.13;7.27;;;;;;;;;;4995539;28;20195;-80
2021/09/24 04:02:49;;;;;;;10.80;7.80;;;;;;;;;;4996451;28;20798;-80
2021/09/24 04:05:15;;;;;;;10.50;7.20;;;;;;;;;;5002776;28;20934;-80
2021/09/24 04:07:41;;;;;;;11.85;7.88;;;;;;;;;;5018087;28;20206;-80
2021/09/24 04:10:07;;;;;;;10.07;7.53;;;;;;;;;;5014193;28;20587;-81
2021/09/24 04:12:33;;;;;;;10.27;7.78;;;;;;;;;;5008741;28;20468;-81
2021/09/24 04:14:59;;;;;;;10.38;7.28;;;;;;;;;;4997104;28;20211;-81
2021/09/24 04:17:25;;;;;;;9.85;7.30;;;;;;;;;;5003166;28;20187;-80
2021/09/24 04:19:51;;;;;;;12.87;7.83;;;;;;;;;;5002768;28;20190;-81
2021/09/24 04:22:17;;;;;;;9.40;7.00;;;;;;;;;;5017976;28;20466;-81
2021/09/24 04:24:43;;;;;;;10.93;7.90;;;;;;;;;;5006025;28;20426;-80
2021/09/24 04:27:09;;;;;;;12.30;8.97;;;;;;;;;;5002502;28;20203;-80
2021/09/24 04:29:35;;;;;;;10.00;7.28;;;;;;;;;;5002504;28;20446;-81
2021/09/24 04:32:01;;;;;;;13.00;8.17;;;;;;;;;;4999248;28;20186;-81
2021/09/24 04:34:27;;;;;;;8.83;6.90;;;;;;;;;;4999481;28;20494;-81
2021/09/24 04:36:53;;;;;;;11.05;7.97;;;;;;;;;;5004996;28;20481;-80
2021/09/24 04:39:19;;;;;;;12.87;8.40;;;;;;;;;;4997865;28;20183;-80
2021/09/24 04:41:46;;;;;;;12.27;7.35;;;;;;;;;;5002882;28;20465;-80
2021/09/24 04:44:12;;;;;;;12.98;7.30;;;;;;;;;;5001351;28;20191;-80
2021/09/24 04:46:38;;;;;;;11.95;7.10;;;;;;;;;;5002542;28;20218;-81
2021/09/24 04:49:04;;;;;;;10.52;7.07;;;;;;;;;;5002672;28;20188;-81
2021/09/24 04:51:30;;;;;;;10.75;8.55;;;;;;;;;;5005191;28;20552;-81
2021/09/24 04:53:56;;;;;;;10.45;7.20;;;;;;;;;;4999433;28;20245;-81
2021/09/24 04:56:22;;;;;;;10.93;7.95;;;;;;;;;;4995898;28;20199;-81
2021/09/24 04:58:48;;;;;;;12.98;8.18;;;;;;;;;;5006586;28;20219;-81
2021/09/24 05:01:14;;;;;;;12.50;8.30;;;;;;;;;;5016740;28;20196;-80
2021/09/24 05:03:40;;;;;;;12.50;8.67;;;;;;;;;;5005552;28;20780;-81
2021/09/24 05:06:06;;;;;;;12.90;8.80;;;;;;;;;;5002393;28;21174;-80
2021/09/24 05:08:32;;;;;;;16.13;10.30;;;;;;;;;;5002092;28;20263;-81
2021/09/24 05:10:58;;;;;;;12.27;9.37;;;;;;;;;;5001692;28;20469;-80
2021/09/24 05:13:24;;;;;;;17.43;10.50;;;;;;;;;;5001065;28;20530;-80
2021/09/24 05:15:50;;;;;;;15.20;9.70;;;;;;;;;;5003959;28;20444;-80
2021/09/24 05:18:16;;;;;;;16.83;10.90;;;;;;;;;;4993309;28;20415;-81
2021/09/24 05:20:42;;;;;;;13.27;9.87;;;;;;;;;;5000726;28;20458;-81
2021/09/24 05:23:08;;;;;;;15.27;9.93;;;;;;;;;;5001887;28;20438;-81
2021/09/24 05:25:34;;;;;;;12.73;9.90;;;;;;;;;;5017640;28;20449;-81
2021/09/24 05:28:00;;;;;;;15.00;10.23;;;;;;;;;;5018579;28;20469;-80
2021/09/24 05:30:26;;;;;;;15.52;10.32;;;;;;;;;;5004124;28;20553;-81
2021/09/24 05:32:53;;;;;;;13.38;10.35;;;;;;;;;;5014950;28;20195;-80
2021/09/24 05:35:19;;;;;;;15.85;10.05;;;;;;;;;;5000475;28;20194;-80
2021/09/24 05:37:45;;;;;;;14.20;9.60;;;;;;;;;;5017994;28;20190;-80
2021/09/24 05:40:12;;;;;;;14.97;10.30;;;;;;;;;;5011896;28;20434;-80
2021/09/24 05:42:38;;;;;;;14.20;9.45;;;;;;;;;;5019492;28;20433;-81
2021/09/24 05:45:05;;;;;;;17.00;10.32;;;;;;;;;;5014513;28;20219;-81
2021/09/24 05:47:31;;;;;;;15.50;9.65;;;;;;;;;;5000020;28;20214;-81
2021/09/24 05:49:57;;;;;;;14.02;9.15;;;;;;;;;;5002993;28;20189;-82
2021/09/24 05:52:23;;;;;;;13.45;9.63;;;;;;;;;;5001461;28;20180;-81
2021/09/24 05:54:49;;;;;;;13.90;9.77;;;;;;;;;;5018482;28;20186;-81
2021/09/24 05:57:15;;;;;;;14.73;10.10;;;;;;;;;;5001574;28;20495;-80
2021/09/24 05:59:41;;;;;;;18.42;9.05;;;;;;;;;;5001156;28;20222;-81
2021/09/24 06:02:07;;;;;;;23.00;11.32;;;;;;;;;;5000624;28;20198;-80
2021/09/24 06:04:33;;;;;;;19.15;9.88;;;;;;;;;;5015529;28;20187;-81
2021/09/24 06:06:59;;;;;;;17.17;10.35;;;;;;;;;;5001202;28;20241;-81
2021/09/24 06:09:25;;;;;;;13.10;8.90;;;;;;;;;;5003903;28;20183;-81
2021/09/24 06:11:51;;;;;;;13.70;9.03;;;;;;;;;;5000269;28;20441;-81
2021/09/24 06:14:17;;;;;;;13.27;8.57;;;;;;;;;;4996702;28;21805;-80
2021/09/24 06:16:43;;;;;;;15.95;9.57;;;;;;;;;;5000591;28;20846;-81
2021/09/24 06:19:10;;;;;;;12.52;8.85;;;;;;;;;;5016462;28;20273;-81
2021/09/24 06:21:36;;;;;;;16.25;10.25;;;;;;;;;;4995053;28;20544;-80
2021/09/24 06:24:02;;;;;;;14.65;9.13;;;;;;;;;;5001631;28;20211;-81
2021/09/24 06:26:28;;;;;;;13.98;9.98;;;;;;;;;;4998759;28;20679;-81
2021/09/24 06:28:54;;;;;;;17.45;10.50;;;;;;;;;;5001662;28;20548;-81
2021/09/24 06:31:20;;;;;;;15.27;9.87;;;;;;;;;;5007653;28;20202;-81
2021/09/24 06:33:47;;;;;;;16.67;10.75;;;;;;;;;;5002990;28;20426;-80
2021/09/24 06:36:17;;;;;;;14.98;10.95;;;;;;;;;;4998519;28;20212;-80
2021/09/24 06:38:43;;;;;;;15.45;10.13;;;;;;;;;;4997963;28;20841;-80
2021/09/24 06:41:09;;;;;;;14.18;9.50;;;;;;;;;;5000117;28;20191;-80
2021/09/24 06:43:35;;;;;;;18.00;11.53;;;;;;;;;;4997348;28;20194;-79
2021/09/24 06:46:01;;;;;;;17.30;10.82;;;;;;;;;;5001439;28;20474;-80
2021/09/24 06:48:27;;;;;;;15.10;10.27;;;;;;;;;;5002404;28;20183;-79
2021/09/24 06:50:53;;;;;;;16.43;10.10;;;;;;;;;;4999959;28;20278;-80
2021/09/24 06:53:19;;;;;;;15.03;10.53;;;;;;;;;;5001615;28;20437;-79
2021/09/24 06:55:45;;;;;;;13.13;9.57;;;;;;;;;;5001340;28;20514;-80
2021/09/24 06:58:11;;;;;;;15.00;11.03;;;;;;;;;;5002067;28;20438;-79
2021/09/24 07:00:37;;;;;;;12.30;8.33;;;;;;;;;;5003064;28;20461;-79
2021/09/24 07:03:03;;;;;;;14.13;8.48;;;;;;;;;;5000223;28;20434;-79
2021/09/24 07:05:29;;;;;;;15.53;9.60;;;;;;;;;;5000706;28;20290;-79
2021/09/24 07:07:55;;;;;;;12.90;8.77;;;;;;;;;;4999955;28;20983;-80
2021/09/24 07:10:21;;;;;;;13.37;9.07;;;;;;;;;;4999993;28;20456;-80
2021/09/24 07:12:48;;;;;;;13.13;8.30;;;;;;;;;;4999668;28;20425;-80
2021/09/24 07:15:14;;;;;;;14.40;10.05;;;;;;;;;;5001791;28;20497;-80
2021/09/24 07:17:40;;;;;;;15.65;9.55;;;;;;;;;;4999566;28;20187;-80
2021/09/24 07:20:07;;;;;;;13.20;9.55;;;;;;;;;;5001342;28;20188;-80
2021/09/24 07:22:33;;;;;;;17.67;9.88;;;;;;;;;;4999800;28;20191;-80
2021/09/24 07:24:59;;;;;;;14.10;10.45;;;;;;;;;;4997922;28;20267;-80
2021/09/24 07:27:25;;;;;;;13.52;10.02;;;;;;;;;;5001137;28;20662;-80
2021/09/24 07:29:52;;;;;;;14.18;9.70;;;;;;;;;;5000903;28;20219;-79
2021/09/24 07:32:18;;;;;;;15.20;9.65;;;;;;;;;;4992669;28;20207;-80
2021/09/24 07:34:44;;;;;;;15.40;9.90;;;;;;;;;;4999392;28;20198;-82
2021/09/24 07:37:10;;;;;;;13.80;10.02;;;;;;;;;;5000111;28;21034;-80
2021/09/24 07:39:37;;;;;;;16.13;12.00;;;;;;;;;;4999200;28;20194;-80
2021/09/24 07:42:03;;;;;;;16.27;9.00;;;;;;;;;;4996961;28;20198;-81
2021/09/24 07:44:29;;;;;;;17.25;9.38;;;;;;;;;;4998491;28;20251;-80
2021/09/24 07:46:55;;;;;;;15.83;8.77;;;;;;;;;;5001157;28;20210;-80
2021/09/24 07:49:21;;;;;;;11.20;7.57;;;;;;;;;;5015450;28;20484;-80
2021/09/24 07:51:47;;;;;;;13.33;7.70;;;;;;;;;;5016950;28;20452;-80
2021/09/24 07:54:13;;;;;;;13.38;8.27;;;;;;;;;;5000952;28;20428;-80
2021/09/24 07:56:39;;;;;;;8.67;6.20;;;;;;;;;;4997490;28;20179;-79
2021/09/24 07:59:05;;;;;;;9.77;6.93;;;;;;;;;;5015371;28;20474;-80
2021/09/24 08:01:31;;;;;;;9.07;6.27;;;;;;;;;;4993632;28;20191;-79
2021/09/24 08:03:57;;;;;;;9.80;7.25;;;;;;;;;;5004668;28;21022;-80
2021/09/24 08:06:23;;;;;;;12.80;7.97;;;;;;;;;;5008748;28;20203;-82
2021/09/24 08:08:49;;;;;;;10.07;6.80;;;;;;;;;;5001858;28;20490;-82
2021/09/24 08:11:16;;;;;;;8.82;6.75;;;;;;;;;;5002771;28;20274;-79
2021/09/24 08:13:42;;;;;;;12.55;6.57;;;;;;;;;;5003004;28;20187;-79
2021/09/24 08:16:08;;;;;;;9.80;4.72;;;;;;;;;;5018975;28;20226;-82
2021/09/24 08:18:34;;;;;;;7.45;5.80;;;;;;;;;;5020948;28;20319;-80
2021/09/24 08:21:00;;;;;;;6.72;5.55;;;;;;;;;;5004009;28;20186;-79
2021/09/24 08:23:27;;;;;;;9.07;5.80;;;;;;;;;;5017573;28;20187;-80
2021/09/24 08:25:53;;;;;;;6.38;5.20;;;;;;;;;;5001768;28;20187;-80
2021/09/24 08:28:19;;;;;;;6.60;4.65;;;;;;;;;;5004363;28;20187;-80
2021/09/24 08:30:46;;;;;;;7.27;5.23;;;;;;;;;;5018896;28;20254;-82
2021/09/24 08:33:14;;;;;;;6.13;4.75;;;;;;;;;;5005585;28;20433;-81
2021/09/24 08:35:40;;;;;;;7.70;6.10;;;;;;;;;;4994780;28;20208;-82
2021/09/24 08:38:06;;;;;;;11.73;7.40;;;;;;;;;;5001173;28;20183;-81
2021/09/24 08:40:33;;;;;;;9.97;6.90;;;;;;;;;;5017475;28;20222;-82
2021/09/24 08:43:00;;;;;;;9.32;6.25;;;;;;;;;;5019345;28;20485;-81
2021/09/24 08:45:26;;;;;;;10.15;6.40;;;;;;;;;;5003954;28;20215;-80
2021/09/24 08:47:53;;;;;;;9.10;6.35;;;;;;;;;;5002439;28;20207;-80
2021/09/24 08:50:19;;;;;;;6.70;4.93;;;;;;;;;;5002431;28;20183;-80
2021/09/24 08:52:45;;;;;;;9.65;6.88;;;;;;;;;;5002491;28;20175;-80
2021/09/24 08:55:12;;;;;;;9.43;5.38;;;;;;;;;;5002289;28;20542;-80
2021/09/24 08:57:38;;;;;;;8.55;5.80;;;;;;;;;;5005982;28;20179;-80
2021/09/24 09:00:05;;;;;;;7.35;5.25;;;;;;;;;;4995980;28;20259;-82
2021/09/24 09:02:50;;;;;;;9.02;6.07;;;;;;;;;;5002614;28;20221;-83
2021/09/24 09:05:16;;;;;;;6.57;5.78;;;;;;;;;;4998166;28;20190;-83
2021/09/24 09:07:44;;;;;;;8.67;6.03;;;;;;;;;;5000919;28;20203;-82
2021/09/24 09:10:10;;;;;;;8.93;6.40;;;;;;;;;;4997047;28;20449;-82
2021/09/24 09:12:36;;;;;;;7.73;5.40;;;;;;;;;;4995155;28;20183;-81
2021/09/24 09:15:06;;;;;;;13.40;5.07;;;;;;;;;;4999397;28;20469;-80
2021/09/24 09:17:36;;;;;;;6.25;4.90;;;;;;;;;;5001909;28;20191;-80
2021/09/24 09:20:19;;;;;;;7.55;5.43;;;;;;;;;;4998989;28;20218;-80
2021/09/24 09:22:49;;;;;;;5.53;4.32;;;;;;;;;;5001733;28;20187;-80
2021/09/24 09:25:24;;;;;;;5.72;3.92;;;;;;;;;;5003418;28;20211;-82
2021/09/24 09:27:51;;;;;;;7.63;4.68;;;;;;;;;;5019323;28;20203;-80
2021/09/24 09:30:17;;;;;;;5.95;4.70;;;;;;;;;;5002769;28;20179;-81
2021/09/24 09:32:44;;;;;;;8.93;4.80;;;;;;;;;;5002082;28;20183;-81
2021/09/24 09:35:11;;;;;;;4.72;4.28;;;;;;;;;;4996769;28;20267;-81
2021/09/24 09:37:38;;;;;;;5.53;4.35;;;;;;;;;;4999551;28;20192;-80
2021/09/24 09:40:06;;;;;;;5.40;4.35;;;;;;;;;;5018637;28;20191;-81
2021/09/24 09:42:33;;;;;;;4.90;4.13;;;;;;;;;;4995120;28;20176;-82
2021/09/24 09:45:00;;;;;;;4.40;4.00;;;;;;;;;;4999508;28;20233;-81
2021/09/24 09:47:29;;;;;;;6.10;4.00;;;;;;;;;;5001387;28;20208;-83
2021/09/24 09:50:09;;;;;;;4.45;4.00;;;;;;;;;;5001926;28;20190;-83
2021/09/24 09:52:54;;;;;;;4.65;3.75;;;;;;;;;;5016421;28;20191;-83
2021/09/24 09:55:21;;;;;;;3.83;3.47;;;;;;;;;;4998140;28;20238;-81
2021/09/24 09:58:07;;;;;;;4.22;3.42;;;;;;;;;;5004032;28;20192;-80
2021/09/24 10:00:33;;;;;;;5.00;3.30;;;;;;;;;;5004112;28;20233;-82
2021/09/24 10:03:17;;;;;;;6.57;4.05;;;;;;;;;;5001529;28;20194;-80
2021/09/24 10:05:44;;;;;;;5.43;3.35;;;;;;;;;;5000453;28;20214;-82
2021/09/24 10:08:20;;;;;;;3.53;2.97;;;;;;;;;;4998552;28;20222;-82
2021/09/24 10:10:57;;;;;;;5.35;3.65;;;;;;;;;;5001581;28;20190;-82
2021/09/24 10:13:24;;;;;;;5.25;2.95;;;;;;;;;;5001940;28;20236;-86
2021/09/24 10:15:50;;;;;;;4.03;2.80;;;;;;;;;;5017344;28;20198;-81
2021/09/24 10:18:16;;;;;;;5.67;3.20;;;;;;;;;;4999708;28;20188;-81
2021/09/24 10:20:42;;;;;;;5.88;3.65;;;;;;;;;;4994433;28;20800;-81
2021/09/24 10:23:08;;;;;;;3.80;2.67;;;;;;;;;;5001783;28;20188;-81
2021/09/24 10:25:35;;;;;;;4.93;3.92;;;;;;;;;;5001636;28;20196;-81
2021/09/24 10:28:06;;;;;;;5.38;4.10;;;;;;;;;;5002824;28;20205;-81
2021/09/24 10:30:33;;;;;;;6.07;3.70;;;;;;;;;;5004283;28;20573;-87
2021/09/24 10:33:01;;;;;;;5.50;4.28;;;;;;;;;;4998004;28;20274;-87
2021/09/24 10:35:45;;;;;;;4.05;3.65;;;;;;;;;;5001829;28;20495;-84
2021/09/24 10:38:11;;;;;;;6.25;4.63;;;;;;;;;;4998503;28;20187;-81
2021/09/24 10:40:51;;;;;;;3.75;3.35;;;;;;;;;;4998111;28;20684;-81
2021/09/24 10:43:18;;;;;;;6.30;3.95;;;;;;;;;;4999103;28;20215;-82
2021/09/24 10:45:44;;;;;;;5.53;3.30;;;;;;;;;;5017452;28;20223;-82
2021/09/24 10:48:18;;;;;;;4.72;3.53;;;;;;;;;;5001535;28;20204;-81
2021/09/24 10:50:45;;;;;;;4.25;3.63;;;;;;;;;;5000539;28;20247;-82
2021/09/24 10:53:13;;;;;;;5.47;3.97;;;;;;;;;;5000185;28;20175;-81
2021/09/24 10:55:43;;;;;;;6.90;4.22;;;;;;;;;;4999732;28;20184;-84
2021/09/24 10:58:32;;;;;;;5.30;3.35;;;;;;;;;;5000976;28;20213;-82
2021/09/24 11:01:06;;;;;;;5.25;4.25;;;;;;;;;;4996156;28;20199;-81
2021/09/24 11:03:33;;;;;;;7.07;4.45;;;;;;;;;;5002363;28;20198;-83
2021/09/24 11:06:04;;;;;;;5.35;3.97;;;;;;;;;;4996841;28;20190;-83
2021/09/24 11:08:30;;;;;;;4.57;4.05;;;;;;;;;;4999286;28;20634;-81
2021/09/24 11:11:02;;;;;;;4.80;3.57;;;;;;;;;;4999543;28;20188;-81
2021/09/24 11:13:28;;;;;;;7.60;3.88;;;;;;;;;;5014905;28;20960;-83
2021/09/24 11:15:58;;;;;;;3.57;3.03;;;;;;;;;;5001746;28;20204;-83
2021/09/24 11:18:43;;;;;;;4.15;3.65;;;;;;;;;;5000105;28;20499;-83
2021/09/24 11:21:09;;;;;;;4.75;3.30;;;;;;;;;;4993374;28;20223;-85
2021/09/24 11:23:36;;;;;;;4.00;3.50;;;;;;;;;;5010778;28;20183;-85
2021/09/24 11:26:09;;;;;;;4.30;3.00;;;;;;;;;;5000275;28;20445;-83
2021/09/24 11:28:36;;;;;;;3.70;3.28;;;;;;;;;;5015247;28;20201;-83
2021/09/24 11:31:01;;;;;;;6.03;4.88;;;;;;;;;;5016722;28;20559;-84
2021/09/24 11:33:47;;;;;;;6.20;4.87;;;;;;;;;;4995662;28;20179;-82
2021/09/24 11:36:14;;;;;;;5.80;4.07;;;;;;;;;;5001655;28;20408;-81
2021/09/24 11:38:40;;;;;;;5.97;4.63;;;;;;;;;;5002864;28;20437;-84
2021/09/24 11:41:06;;;;;;;4.57;3.50;;;;;;;;;;5002532;28;20497;-82
2021/09/24 11:43:32;;;;;;;5.77;3.80;;;;;;;;;;5003458;28;20401;-81
2021/09/24 11:46:00;;;;;;;6.93;4.17;;;;;;;;;;5019945;28;20439;-84
2021/09/24 11:48:29;;;;;;;7.77;4.57;;;;;;;;;;5005518;28;20422;-82
2021/09/24 11:50:55;;;;;;;3.93;3.50;;;;;;;;;;5003783;28;20426;-82
2021/09/24 11:53:22;;;;;;;4.80;4.27;;;;;;;;;;5004223;28;20457;-81
2021/09/24 11:55:48;;;;;;;8.47;4.60;;;;;;;;;;5004644;28;20430;-83
2021/09/24 11:58:17;;;;;;;4.40;4.00;;;;;;;;;;5003857;28;20412;-81
2021/09/24 12:00:49;;;;;;;6.30;4.13;;;;;;;;;;5022138;28;20457;-81
2021/09/24 12:03:20;;;;;;;7.07;4.33;;;;;;;;;;5004165;28;20499;-81
2021/09/24 12:05:50;;;;;;;4.97;3.60;;;;;;;;;;4996438;28;20954;-80
2021/09/24 12:08:17;;;;;;;5.17;4.07;;;;;;;;;;5003427;28;20447;-81
2021/09/24 12:10:44;;;;;;;3.70;3.40;;;;;;;;;;5019196;28;21009;-81
2021/09/24 12:13:10;;;;;;;4.73;3.30;;;;;;;;;;5013658;28;21208;-82
2021/09/24 12:15:52;;;;;;;5.20;4.70;;;;;;;;;;5006041;28;20426;-81
2021/09/24 12:18:18;;;;;;;3.50;3.20;;;;;;;;;;4999452;28;20430;-81
2021/09/24 12:20:45;;;;;;;4.90;2.73;;;;;;;;;;5003515;28;20414;-84
2021/09/24 12:23:12;;;;;;;5.03;3.70;;;;;;;;;;5003863;28;20833;-84
2021/09/24 12:25:38;;;;;;;4.23;3.67;;;;;;;;;;5003145;28;20479;-84
2021/09/24 12:28:07;;;;;;;4.00;3.70;;;;;;;;;;5004692;28;20477;-85
2021/09/24 12:30:37;;;;;;;4.37;3.63;;;;;;;;;;5005934;28;20426;-83
2021/09/24 12:33:13;;;;;;;7.03;3.60;;;;;;;;;;5002502;28;20499;-84
2021/09/24 12:35:39;;;;;;;5.23;3.47;;;;;;;;;;5002775;28;20473;-83
2021/09/24 12:38:05;;;;;;;3.90;3.50;;;;;;;;;;4998777;28;20445;-84
2021/09/24 12:40:32;;;;;;;5.87;2.83;;;;;;;;;;5015776;28;20433;-81
2021/09/24 12:43:00;;;;;;;3.40;3.20;;;;;;;;;;5004407;28;20422;-84
2021/09/24 12:45:25;;;;;;;3.87;2.90;;;;;;;;;;5004501;28;20488;-83
2021/09/24 12:47:52;;;;;;;3.40;3.10;;;;;;;;;;5000519;28;21058;-81
2021/09/24 12:50:18;;;;;;;4.50;3.70;;;;;;;;;;5003273;28;20453;-82
2021/09/24 12:52:45;;;;;;;4.13;3.60;;;;;;;;;;4992377;28;20438;-82
2021/09/24 12:55:11;;;;;;;5.00;4.07;;;;;;;;;;5003667;28;20524;-87
2021/09/24 12:57:38;;;;;;;3.33;3.03;;;;;;;;;;5006156;28;20450;-83
2021/09/24 13:00:06;;;;;;;4.00;2.83;;;;;;;;;;5017417;28;20534;-82
2021/09/24 13:02:33;;;;;;;3.50;3.20;;;;;;;;;;5002185;28;20437;-81
2021/09/24 13:04:59;;;;;;;6.33;3.60;;;;;;;;;;5002509;28;20468;-82
2021/09/24 13:07:26;;;;;;;5.07;3.80;;;;;;;;;;5002468;28;20829;-84
2021/09/24 13:10:08;;;;;;;3.73;3.43;;;;;;;;;;5005136;28;20418;-84
2021/09/24 13:12:36;;;;;;;4.43;4.03;;;;;;;;;;5005296;28;20408;-79
2021/09/24 13:15:06;;;;;;;4.53;4.13;;;;;;;;;;5016755;28;20476;-79
2021/09/24 13:17:32;;;;;;;3.80;3.40;;;;;;;;;;4995216;28;20447;-79
2021/09/24 13:19:59;;;;;;;3.40;3.10;;;;;;;;;;5002443;28;20438;-80
2021/09/24 13:22:25;;;;;;;3.87;3.50;;;;;;;;;;5002702;28;20952;-82
2021/09/24 13:24:51;;;;;;;3.50;3.20;;;;;;;;;;5005033;28;20422;-83
2021/09/24 13:27:17;;;;;;;3.53;3.23;;;;;;;;;;5003003;28;20477;-82
2021/09/24 13:29:46;;;;;;;3.60;3.30;;;;;;;;;;4994963;28;20471;-83
2021/09/24 13:32:14;;;;;;;3.80;3.40;;;;;;;;;;5002164;28;20461;-80
2021/09/24 13:34:40;;;;;;;3.70;3.50;;;;;;;;;;5002399;28;20438;-79
2021/09/24 13:37:08;;;;;;;3.50;3.20;;;;;;;;;;5002757;28;20450;-79
2021/09/24 13:39:34;;;;;;;4.43;3.70;;;;;;;;;;5005072;28;20434;-81
2021/09/24 13:42:00;;;;;;;3.60;3.30;;;;;;;;;;5001991;28;20472;-81
2021/09/24 13:44:26;;;;;;;4.30;3.90;;;;;;;;;;4993935;28;20469;-79
2021/09/24 13:46:52;;;;;;;3.27;3.07;;;;;;;;;;5001027;28;20497;-80
2021/09/24 13:49:18;;;;;;;3.40;3.10;;;;;;;;;;5003764;28;20453;-82
2021/09/24 13:51:44;;;;;;;3.93;3.63;;;;;;;;;;5004730;28;20422;-80
2021/09/24 13:54:10;;;;;;;4.13;3.83;;;;;;;;;;5002149;28;20414;-82
2021/09/24 13:56:36;;;;;;;3.63;3.33;;;;;;;;;;5001245;28;20452;-80
2021/09/24 13:59:03;;;;;;;3.90;3.43;;;;;;;;;;5001131;28;20439;-81
2021/09/24 14:01:29;;;;;;;4.20;3.90;;;;;;;;;;5016445;28;20496;-80
2021/09/24 14:03:56;;;;;;;3.63;3.33;;;;;;;;;;5018968;28;20973;-80
2021/09/24 14:06:22;;;;;;;3.93;3.50;;;;;;;;;;5002443;28;20536;-82
2021/09/24 14:08:48;;;;;;;4.13;3.83;;;;;;;;;;5001371;28;20487;-80
2021/09/24 14:11:14;;;;;;;3.30;3.10;;;;;;;;;;5001487;28;20437;-80
2021/09/24 14:13:40;;;;;;;3.80;3.50;;;;;;;;;;5002202;28;20529;-81
2021/09/24 14:16:06;;;;;;;3.30;3.10;;;;;;;;;;5016759;28;25765;-81
2021/09/24 14:18:32;;;;;;;4.03;3.47;;;;;;;;;;5002915;28;20422;-81
2021/09/24 14:20:58;;;;;;;5.97;3.50;;;;;;;;;;5001061;28;20434;-80
2021/09/24 14:23:24;;;;;;;4.43;3.20;;;;;;;;;;5001177;28;20947;-80
2021/09/24 14:25:50;;;;;;;3.67;3.37;;;;;;;;;;4991283;28;20436;-80
2021/09/24 14:28:16;;;;;;;3.93;3.63;;;;;;;;;;5000521;28;20469;-80
2021/09/24 14:30:43;;;;;;;3.20;2.97;;;;;;;;;;5004567;28;20422;-82
2021/09/24 14:33:09;;;;;;;5.20;3.40;;;;;;;;;;5001879;28;20426;-80
2021/09/24 14:35:35;;;;;;;3.83;3.20;;;;;;;;;;5000808;28;20441;-82